Time;durP1;ratioP1;P1;durP2;ratioP2;P2;SDS_P1;SDS_P2;PMS_P1;PMS_P2;Temp;Humidity;BMP_temperature;BMP_pressure;BME280_temperature;BME280_humidity;BME280_pressure;Samples;Min_cycle;Max_cycle;Signal;HPM_P1;HPM_P2
2022/02/17 00:02:26;;;;;;;;;;;;;;;5.47;96.00;99612.78;5091241;28;937;-58
2022/02/17 00:04:54;;;;;;;;;;;;;;;5.41;95.60;99614.25;5091289;28;787;-59
2022/02/17 00:07:20;;;;;;;;;;;;;;;5.28;95.89;99612.91;5091291;28;878;-58
2022/02/17 00:09:47;;;;;;;;;;;;;;;5.16;95.92;99607.66;5091265;28;897;-59
2022/02/17 00:12:14;;;;;;;;;;;;;;;5.09;95.78;99605.63;5091233;28;868;-58
2022/02/17 00:14:39;;;;;;;;;;;;;;;5.09;95.91;99606.41;5091100;28;895;-59
2022/02/17 00:17:06;;;;;;;;;;;;;;;5.14;96.07;99604.50;5091481;28;1042;-58
2022/02/17 00:19:32;;;;;;;;;;;;;;;5.19;96.27;99604.97;5091193;28;1945;-58
2022/02/17 00:21:59;;;;;;;;;;;;;;;5.19;95.50;99604.19;5094415;28;950;-59
2022/02/17 00:24:25;;;;;;;;;;;;;;;5.12;95.70;99604.88;5095012;28;807;-58
2022/02/17 00:26:52;;;;;;;;;;;;;;;5.10;96.01;99599.78;5094816;28;798;-59
2022/02/17 00:29:18;;;;;;;;;;;;;;;5.14;95.94;99596.28;5094832;28;855;-58
2022/02/17 00:31:44;;;;;;;;;;;;;;;5.13;95.63;99594.72;5094669;28;847;-58
2022/02/17 00:34:11;;;;;;;;;;;;;;;5.18;96.09;99588.91;5094753;28;807;-58
2022/02/17 00:36:37;;;;;;;;;;;;;;;5.27;96.03;99584.75;5094776;28;866;-58
2022/02/17 00:39:04;;;;;;;;;;;;;;;5.38;96.08;99576.66;5094616;28;1878;-58
2022/02/17 00:41:31;;;;;;;;;;;;;;;5.47;95.83;99568.13;5094366;28;1601;-59
2022/02/17 00:43:57;;;;;;;;;;;;;;;5.50;95.98;99556.41;5094487;28;909;-58
2022/02/17 00:46:24;;;;;;;;;;;;;;;5.50;96.29;99548.19;5094564;28;874;-58
2022/02/17 00:48:51;;;;;;;;;;;;;;;5.50;96.08;99548.19;5094507;28;823;-58
2022/02/17 00:51:17;;;;;;;;;;;;;;;5.58;96.25;99549.06;5094465;28;842;-58
2022/02/17 00:53:43;;;;;;;;;;;;;;;5.64;96.43;99547.56;5094264;28;927;-59
2022/02/17 00:56:10;;;;;;;;;;;;;;;5.66;96.19;99553.47;5094168;28;846;-58
2022/02/17 00:58:37;;;;;;;;;;;;;;;5.64;96.23;99553.06;5094242;28;1910;-59
2022/02/17 01:01:03;;;;;;;;;;;;;;;5.54;95.72;99559.97;5094276;28;803;-59
2022/02/17 01:03:30;;;;;;;;;;;;;;;5.46;96.06;99561.06;5094217;28;843;-59
2022/02/17 01:05:56;;;;;;;;;;;;;;;5.38;95.77;99571.16;5094098;28;816;-59
2022/02/17 01:08:23;;;;;;;;;;;;;;;5.36;96.04;99564.47;5094327;28;799;-59
2022/02/17 01:10:49;;;;;;;;;;;;;;;5.32;95.80;99556.22;5094215;28;855;-59
2022/02/17 01:13:16;;;;;;;;;;;;;;;5.33;95.54;99555.03;5094239;28;853;-58
2022/02/17 01:15:42;;;;;;;;;;;;;;;5.31;95.73;99549.94;5094292;28;948;-59
2022/02/17 01:18:08;;;;;;;;;;;;;;;5.28;95.98;99542.44;5075987;28;2343;-58
2022/02/17 01:20:35;;;;;;;;;;;;;;;5.27;96.05;99540.88;5093819;28;870;-58
2022/02/17 01:23:01;;;;;;;;;;;;;;;5.26;96.19;99539.28;5093844;28;874;-59
2022/02/17 01:25:28;;;;;;;;;;;;;;;5.27;96.20;99535.41;5093710;28;831;-58
2022/02/17 01:27:57;;;;;;;;;;;;;;;5.31;96.15;99530.75;5093663;28;810;-59
2022/02/17 01:30:24;;;;;;;;;;;;;;;5.35;96.25;99525.31;5093646;28;902;-59
2022/02/17 01:32:50;;;;;;;;;;;;;;;5.37;96.45;99522.97;5093022;28;964;-59
2022/02/17 01:35:17;;;;;;;;;;;;;;;5.35;96.51;99524.53;5093495;28;803;-58
2022/02/17 01:37:45;;;;;;;;;;;;;;;5.33;96.21;99522.16;5093330;28;1914;-59
2022/02/17 01:40:12;;;;;;;;;;;;;;;5.29;95.84;99522.13;5094123;28;1374;-59
2022/02/17 01:42:39;;;;;;;;;;;;;;;5.24;95.98;99530.66;5093497;28;903;-58
2022/02/17 01:45:06;;;;;;;;;;;;;;;5.15;96.04;99521.94;5093758;28;787;-58
2022/02/17 01:47:32;;;;;;;;;;;;;;;5.06;96.05;99527.72;5093610;28;806;-58
2022/02/17 01:49:59;;;;;;;;;;;;;;;5.01;96.08;99529.97;5093708;28;899;-59
2022/02/17 01:52:26;;;;;;;;;;;;;;;4.98;96.69;99526.03;5093156;28;819;-59
2022/02/17 01:54:53;;;;;;;;;;;;;;;4.94;96.30;99524.41;5074902;28;1196;-58
2022/02/17 01:57:22;;;;;;;;;;;;;;;4.88;96.33;99529.41;5075073;28;847;-58
2022/02/17 01:59:49;;;;;;;;;;;;;;;4.78;96.35;99536.34;5093235;28;854;-58
2022/02/17 02:02:15;;;;;;;;;;;;;;;4.65;96.29;99534.94;5093425;28;894;-59
2022/02/17 02:04:41;;;;;;;;;;;;;;;4.51;96.14;99535.53;5092980;28;827;-58
2022/02/17 02:07:07;;;;;;;;;;;;;;;4.40;96.82;99529.91;5092872;28;875;-59
2022/02/17 02:09:34;;;;;;;;;;;;;;;4.34;96.44;99525.91;5092844;28;842;-58
2022/02/17 02:12:00;;;;;;;;;;;;;;;4.21;96.64;99521.78;5092930;28;815;-59
2022/02/17 02:14:27;;;;;;;;;;;;;;;4.14;96.76;99525.19;5092836;28;871;-58
2022/02/17 02:16:54;;;;;;;;;;;;;;;4.06;96.93;99526.22;5092695;28;985;-58
2022/02/17 02:19:21;;;;;;;;;;;;;;;3.92;97.16;99518.56;5092624;28;1882;-58
2022/02/17 02:21:47;;;;;;;;;;;;;;;3.81;96.86;99521.09;5092701;28;874;-59
2022/02/17 02:24:14;;;;;;;;;;;;;;;3.75;97.36;99514.34;5092471;28;993;-59
2022/02/17 02:26:41;;;;;;;;;;;;;;;3.67;97.34;99512.66;5092530;28;824;-59
2022/02/17 02:29:07;;;;;;;;;;;;;;;3.64;97.44;99510.66;5092430;28;910;-59
2022/02/17 02:31:33;;;;;;;;;;;;;;;3.55;97.85;99502.69;5092441;28;808;-59
2022/02/17 02:34:02;;;;;;;;;;;;;;;3.49;97.80;99509.59;5092441;28;811;-58
2022/02/17 02:36:29;;;;;;;;;;;;;;;3.48;97.77;99505.28;5092388;28;842;-58
2022/02/17 02:38:55;;;;;;;;;;;;;;;3.42;97.77;99502.06;5074135;28;1882;-59
2022/02/17 02:41:22;;;;;;;;;;;;;;;3.42;97.79;99502.06;5092198;28;1429;-59
2022/02/17 02:43:49;;;;;;;;;;;;;;;3.41;98.39;99496.94;5091513;28;803;-59
2022/02/17 02:46:14;;;;;;;;;;;;;;;3.33;98.11;99492.50;5092234;28;851;-58
2022/02/17 02:48:41;;;;;;;;;;;;;;;3.26;97.72;99496.69;5092498;28;846;-59
2022/02/17 02:51:09;;;;;;;;;;;;;;;3.25;98.34;99495.09;5092118;28;878;-58
2022/02/17 02:53:35;;;;;;;;;;;;;;;3.21;97.86;99491.50;5092182;28;889;-58
2022/02/17 02:56:01;;;;;;;;;;;;;;;3.13;98.30;99500.69;5091950;28;917;-58
2022/02/17 02:58:28;;;;;;;;;;;;;;;3.12;98.11;99498.34;5091863;28;1910;-59
2022/02/17 03:00:54;;;;;;;;;;;;;;;3.11;98.79;99494.03;5091946;28;791;-59
2022/02/17 03:03:21;;;;;;;;;;;;;;;3.08;98.54;99498.28;5092040;28;783;-59
2022/02/17 03:05:48;;;;;;;;;;;;;;;3.05;99.07;99488.88;5092087;28;843;-59
2022/02/17 03:08:14;;;;;;;;;;;;;;;3.02;98.98;99488.78;5073670;28;2463;-58
2022/02/17 03:10:41;;;;;;;;;;;;;;;2.96;99.00;99488.25;5091788;28;862;-58
2022/02/17 03:13:07;;;;;;;;;;;;;;;2.99;99.28;99497.69;5107507;28;837;-58
2022/02/17 03:15:33;;;;;;;;;;;;;;;3.03;99.23;99488.44;5073581;28;1258;-58
2022/02/17 03:18:01;;;;;;;;;;;;;;;3.06;99.34;99490.44;5073525;28;2495;-58
2022/02/17 03:20:28;;;;;;;;;;;;;;;3.08;99.44;99490.06;5073472;28;794;-58
2022/02/17 03:22:54;;;;;;;;;;;;;;;3.06;99.48;99497.84;5107400;28;888;-58
2022/02/17 03:25:51;;;;;;;;;;;;;;;3.09;99.77;99505.28;5091606;28;803;-58
2022/02/17 03:28:22;;;;;;;;;;;;;;;3.18;99.96;99507.81;5091844;28;878;-58
2022/02/17 03:30:50;;;;;;;;;;;;;;;3.34;100.00;99507.75;5092146;28;819;-58
2022/02/17 03:33:17;;;;;;;;;;;;;;;3.46;100.00;99511.13;5091721;28;806;-58
2022/02/17 03:35:47;;;;;;;;;;;;;;;3.56;100.00;99506.19;5091599;28;850;-58
2022/02/17 03:38:16;;;;;;;;;;;;;;;3.66;100.00;99500.13;5091286;28;1954;-58
2022/02/17 03:44:10;;;;;;;;;;;;;;;3.81;100.00;99501.19;5091565;28;625;-58
2022/02/17 03:46:37;;;;;;;;;;;;;;;3.80;100.00;99507.81;5091779;28;870;-58
2022/02/17 03:49:04;;;;;;;;;;;;;;;3.80;100.00;99500.41;5091280;28;850;-58
2022/02/17 03:51:31;;;;;;;;;;;;;;;3.80;100.00;99505.09;5091484;28;818;-59
2022/02/17 03:53:58;;;;;;;;;;;;;;;3.82;100.00;99503.56;5091423;28;889;-58
2022/02/17 03:56:24;;;;;;;;;;;;;;;3.86;100.00;99498.94;5094022;28;802;-58
2022/02/17 03:59:01;;;;;;;;;;;;;;;3.93;100.00;99498.28;5095580;28;2021;-58
2022/02/17 04:01:28;;;;;;;;;;;;;;;4.02;100.00;99500.75;5095413;28;831;-58
2022/02/17 04:03:55;;;;;;;;;;;;;;;4.06;100.00;99499.66;5077219;28;1199;-58
2022/02/17 04:06:22;;;;;;;;;;;;;;;4.12;100.00;99499.34;5095309;28;870;-58
2022/02/17 04:08:49;;;;;;;;;;;;;;;4.13;100.00;99493.50;5095239;28;877;-58
2022/02/17 04:11:16;;;;;;;;;;;;;;;4.13;100.00;99484.53;5095192;28;818;-58
2022/02/17 04:13:43;;;;;;;;;;;;;;;4.13;100.00;99492.72;5110920;28;807;-58
2022/02/17 04:16:10;;;;;;;;;;;;;;;4.13;100.00;99495.47;5110976;28;955;-58
2022/02/17 04:18:37;;;;;;;;;;;;;;;4.12;100.00;99494.69;5094861;28;2039;-58
2022/02/17 04:21:05;;;;;;;;;;;;;;;4.11;100.00;99492.31;5094876;28;858;-58
2022/02/17 04:23:31;;;;;;;;;;;;;;;4.13;100.00;99487.25;5076493;28;1227;-58
2022/02/17 04:25:59;;;;;;;;;;;;;;;4.13;100.00;99490.78;5094820;28;862;-58
2022/02/17 04:28:26;;;;;;;;;;;;;;;4.13;100.00;99490.78;5094893;28;791;-59
2022/02/17 04:30:53;;;;;;;;;;;;;;;4.13;100.00;99479.84;5094753;28;882;-57
2022/02/17 04:33:20;;;;;;;;;;;;;;;4.16;100.00;99481.03;5094829;28;819;-58
2022/02/17 04:35:46;;;;;;;;;;;;;;;4.17;100.00;99475.22;5094598;28;913;-57
2022/02/17 04:38:12;;;;;;;;;;;;;;;4.19;100.00;99483.84;5094634;28;1885;-57
2022/02/17 04:43:23;;;;;;;;;;;;;;;4.24;100.00;99488.22;5094653;28;641;-49
2022/02/17 04:45:49;;;;;;;;;;;;;;;4.24;100.00;99477.25;5094532;28;937;-49
2022/02/17 04:48:15;;;;;;;;;;;;;;;4.25;100.00;99479.66;5094365;28;937;-49
2022/02/17 04:50:41;;;;;;;;;;;;;;;4.24;100.00;99478.06;5094390;28;811;-50
2022/02/17 04:53:07;;;;;;;;;;;;;;;4.29;100.00;99475.03;5094407;28;807;-50
2022/02/17 04:55:34;;;;;;;;;;;;;;;4.32;100.00;99475.44;5094265;28;930;-50
2022/02/17 04:58:00;;;;;;;;;;;;;;;4.30;100.00;99476.59;5094258;28;1914;-52
2022/02/17 05:00:27;;;;;;;;;;;;;;;4.27;100.00;99474.59;5094173;28;930;-55
2022/02/17 05:02:53;;;;;;;;;;;;;;;4.27;100.00;99474.59;5094338;28;814;-55
2022/02/17 05:05:20;;;;;;;;;;;;;;;4.26;100.00;99477.69;5094496;28;929;-55
2022/02/17 05:07:46;;;;;;;;;;;;;;;4.25;100.00;99476.13;5093300;28;820;-55
2022/02/17 05:10:13;;;;;;;;;;;;;;;4.29;100.00;99480.50;5094408;28;842;-55
2022/02/17 05:12:39;;;;;;;;;;;;;;;4.32;100.00;99470.75;5094321;28;834;-55
2022/02/17 05:15:06;;;;;;;;;;;;;;;4.34;100.00;99462.97;5094360;28;1167;-55
2022/02/17 05:17:33;;;;;;;;;;;;;;;4.33;100.00;99463.31;5094220;28;1893;-55
2022/02/17 05:19:59;;;;;;;;;;;;;;;4.28;100.00;99465.22;5094129;28;889;-55
2022/02/17 05:22:25;;;;;;;;;;;;;;;4.26;100.00;99458.53;5093711;28;926;-55
2022/02/17 05:24:53;;;;;;;;;;;;;;;4.22;100.00;99466.69;5093898;28;795;-56
2022/02/17 05:27:19;;;;;;;;;;;;;;;4.19;100.00;99455.72;5093587;28;851;-58
2022/02/17 05:29:46;;;;;;;;;;;;;;;4.17;100.00;99458.81;5093737;28;838;-58
2022/02/17 05:32:11;;;;;;;;;;;;;;;4.20;100.00;99457.28;5075457;28;931;-58
2022/02/17 05:34:38;;;;;;;;;;;;;;;4.24;100.00;99460.84;5093872;28;886;-58
2022/02/17 05:37:04;;;;;;;;;;;;;;;4.29;100.00;99450.41;5093526;28;1048;-58
2022/02/17 05:39:31;;;;;;;;;;;;;;;4.30;100.00;99451.19;5093373;28;1886;-58
2022/02/17 05:41:58;;;;;;;;;;;;;;;4.27;100.00;99447.22;5093347;28;1374;-58
2022/02/17 05:44:25;;;;;;;;;;;;;;;4.21;100.00;99443.22;5093376;28;886;-58
2022/02/17 05:46:52;;;;;;;;;;;;;;;4.19;100.00;99440.06;5093316;28;905;-57
2022/02/17 05:49:18;;;;;;;;;;;;;;;4.21;100.00;99437.75;5093300;28;928;-58
2022/02/17 05:51:44;;;;;;;;;;;;;;;4.15;100.00;99436.50;5093227;28;866;-58
2022/02/17 05:54:10;;;;;;;;;;;;;;;4.10;100.00;99428.63;5093229;28;818;-58
2022/02/17 05:56:37;;;;;;;;;;;;;;;4.15;100.00;99432.97;5093220;28;857;-57
2022/02/17 05:59:03;;;;;;;;;;;;;;;4.05;100.00;99421.53;5093028;28;1973;-58
2022/02/17 06:01:30;;;;;;;;;;;;;;;4.01;100.00;99428.88;5093052;28;893;-58
2022/02/17 06:03:57;;;;;;;;;;;;;;;3.94;100.00;99419.75;5093227;28;924;-57
2022/02/17 06:06:24;;;;;;;;;;;;;;;3.88;100.00;99425.56;5093064;28;873;-58
2022/02/17 06:08:50;;;;;;;;;;;;;;;3.90;100.00;99422.44;5093172;28;846;-58
2022/02/17 06:11:17;;;;;;;;;;;;;;;3.96;100.00;99420.19;5092822;28;897;-57
2022/02/17 06:13:43;;;;;;;;;;;;;;;3.98;100.00;99413.19;5074805;28;1620;-57
2022/02/17 06:16:08;;;;;;;;;;;;;;;3.97;100.00;99421.75;5093079;28;945;-59
2022/02/17 06:18:35;;;;;;;;;;;;;;;4.07;100.00;99410.19;5092651;28;1885;-59
2022/02/17 06:21:01;;;;;;;;;;;;;;;4.14;100.00;99410.31;5092705;28;842;-59
2022/02/17 06:23:28;;;;;;;;;;;;;;;4.09;100.00;99416.88;5092884;28;881;-58
2022/02/17 06:25:54;;;;;;;;;;;;;;;4.15;100.00;99414.63;5092844;28;902;-59
2022/02/17 06:28:21;;;;;;;;;;;;;;;4.28;100.00;99412.44;5092671;28;983;-59
2022/02/17 06:30:48;;;;;;;;;;;;;;;4.31;100.00;99417.19;5092559;28;827;-60
2022/02/17 06:33:14;;;;;;;;;;;;;;;4.29;100.00;99405.84;5092479;28;868;-58
2022/02/17 06:35:40;;;;;;;;;;;;;;;4.24;100.00;99404.19;5092659;28;811;-59
2022/02/17 06:38:07;;;;;;;;;;;;;;;4.20;100.00;99405.28;5092409;28;1948;-59
2022/02/17 06:40:34;;;;;;;;;;;;;;;4.38;100.00;99397.34;5090107;28;1446;-59
2022/02/17 06:43:04;;;;;;;;;;;;;;;4.45;100.00;99397.44;5071961;28;859;-59
2022/02/17 06:45:31;;;;;;;;;;;;;;;4.69;100.00;99388.75;5072060;28;862;-59
2022/02/17 06:47:58;;;;;;;;;;;;;;;4.97;100.00;99384.78;5071960;28;831;-59
2022/02/17 06:50:25;;;;;;;;;;;;;;;5.07;99.55;99395.03;5071713;28;914;-59
2022/02/17 06:52:51;;;;;;;;;;;;;;;5.26;99.34;99385.06;5072190;28;858;-59
2022/02/17 06:55:17;;;;;;;;;;;;;;;5.32;99.25;99389.03;5071897;28;866;-59
2022/02/17 06:57:43;;;;;;;;;;;;;;;5.39;98.54;99380.09;5071756;28;1976;-59
2022/02/17 07:00:10;;;;;;;;;;;;;;;5.27;97.86;99367.44;5071825;28;798;-59
2022/02/17 07:02:36;;;;;;;;;;;;;;;5.25;98.24;99370.56;5072013;28;807;-59
2022/02/17 07:05:03;;;;;;;;;;;;;;;5.40;98.14;99368.75;5071619;28;917;-59
2022/02/17 07:07:35;;;;;;;;;;;;;;;5.71;98.27;99361.16;5071676;28;843;-59
2022/02/17 07:10:03;;;;;;;;;;;;;;;5.99;96.82;99360.59;5071481;28;1059;-59
2022/02/17 07:12:31;;;;;;;;;;;;;;;6.21;96.49;99349.75;5071742;28;1052;-59
2022/02/17 07:14:58;;;;;;;;;;;;;;;6.29;95.41;99337.66;5071418;28;1153;-59
2022/02/17 07:17:25;;;;;;;;;;;;;;;6.52;95.16;99348.34;5071784;28;842;-59
2022/02/17 07:19:51;;;;;;;;;;;;;;;6.83;94.29;99346.91;5071446;28;1947;-59
2022/02/17 07:22:18;;;;;;;;;;;;;;;7.10;92.75;99352.81;5071270;28;910;-59
2022/02/17 07:24:45;;;;;;;;;;;;;;;7.08;92.35;99357.13;5071476;28;831;-59
2022/02/17 07:27:11;;;;;;;;;;;;;;;7.07;91.64;99361.84;5071471;28;811;-59
2022/02/17 07:29:38;;;;;;;;;;;;;;;6.88;92.97;99362.22;5071194;28;855;-59
2022/02/17 07:32:06;;;;;;;;;;;;;;;6.72;92.16;99368.03;5071190;28;870;-59
2022/02/17 07:34:33;;;;;;;;;;;;;;;6.56;92.61;99371.13;5071691;28;799;-59
2022/02/17 07:36:59;;;;;;;;;;;;;;;6.48;93.39;99372.25;5071395;28;851;-59
2022/02/17 07:39:26;;;;;;;;;;;;;;;6.47;93.92;99384.41;5071473;28;2036;-59
2022/02/17 07:41:52;;;;;;;;;;;;;;;6.50;93.64;99381.66;5084420;28;1486;-59
2022/02/17 07:44:24;;;;;;;;;;;;;;;6.40;92.80;99374.19;5091557;28;871;-59
2022/02/17 07:46:50;;;;;;;;;;;;;;;6.20;94.05;99378.38;5091206;28;903;-59
2022/02/17 07:49:17;;;;;;;;;;;;;;;6.22;93.84;99382.31;5091367;28;858;-59
2022/02/17 07:51:44;;;;;;;;;;;;;;;6.34;94.55;99382.00;5091431;28;910;-59
2022/02/17 07:54:10;;;;;;;;;;;;;;;6.45;94.51;99389.50;5091484;28;818;-59
2022/02/17 07:56:37;;;;;;;;;;;;;;;6.55;94.00;99397.00;5091624;28;866;-59
2022/02/17 07:59:03;;;;;;;;;;;;;;;6.54;93.79;99392.69;5091532;28;1923;-59
2022/02/17 08:01:30;;;;;;;;;;;;;;;6.61;93.79;99400.94;5091312;28;923;-59
2022/02/17 08:03:57;;;;;;;;;;;;;;;6.70;93.48;99390.41;5107195;28;866;-59
2022/02/17 08:06:23;;;;;;;;;;;;;;;6.61;93.60;99391.91;5091392;28;883;-59
2022/02/17 08:08:51;;;;;;;;;;;;;;;6.67;93.37;99388.41;5091030;28;863;-59
2022/02/17 08:11:18;;;;;;;;;;;;;;;6.74;93.08;99387.66;5073145;28;1359;-59
2022/02/17 08:13:44;;;;;;;;;;;;;;;7.04;93.02;99387.38;5073087;28;986;-59
2022/02/17 08:16:10;;;;;;;;;;;;;;;7.30;92.36;99390.97;5091421;28;1047;-59
2022/02/17 08:18:37;;;;;;;;;;;;;;;7.45;90.75;99378.81;5072876;28;1981;-59
2022/02/17 08:21:03;;;;;;;;;;;;;;;7.35;90.57;99382.31;5091067;28;978;-59
2022/02/17 08:23:32;;;;;;;;;;;;;;;7.60;90.72;99379.59;5091056;28;804;-59
2022/02/17 08:26:00;;;;;;;;;;;;;;;8.25;90.52;99363.78;5090902;28;819;-59
2022/02/17 08:28:26;;;;;;;;;;;;;;;8.69;88.34;99364.47;5072891;28;1738;-59
2022/02/17 08:30:52;;;;;;;;;;;;;;;8.86;87.02;99360.84;5090992;28;962;-58
2022/02/17 08:33:19;;;;;;;;;;;;;;;8.87;85.62;99356.91;5090909;28;811;-58
2022/02/17 08:35:45;;;;;;;;;;;;;;;8.90;85.60;99361.63;5091047;28;898;-58
2022/02/17 08:38:12;;;;;;;;;;;;;;;9.19;85.33;99353.16;5090812;28;1951;-58
2022/02/17 08:40:38;;;;;;;;;;;;;;;9.31;85.05;99357.44;5072545;28;1345;-58
2022/02/17 08:43:12;;;;;;;;;;;;;;;9.54;83.15;99349.38;5092858;28;834;-57
2022/02/17 08:45:40;;;;;;;;;;;;;;;9.20;82.64;99347.25;5094364;28;862;-57
2022/02/17 08:48:07;;;;;;;;;;;;;;;9.61;82.97;99346.56;5094340;28;881;-57
2022/02/17 08:50:35;;;;;;;;;;;;;;;9.98;82.04;99344.25;5094399;28;905;-57
2022/02/17 08:53:02;;;;;;;;;;;;;;;9.83;80.15;99354.66;5094446;28;1157;-57
2022/02/17 08:55:28;;;;;;;;;;;;;;;9.57;79.61;99362.34;5094280;28;890;-56
2022/02/17 08:57:54;;;;;;;;;;;;;;;9.35;81.17;99358.97;5094449;28;1917;-56
2022/02/17 09:00:21;;;;;;;;;;;;;;;9.25;81.15;99357.06;5094296;28;983;-56
2022/02/17 09:02:47;;;;;;;;;;;;;;;9.18;81.24;99346.09;5094321;28;791;-56
2022/02/17 09:05:14;;;;;;;;;;;;;;;9.19;81.21;99342.91;5094253;28;798;-55
2022/02/17 09:07:40;;;;;;;;;;;;;;;9.38;81.11;99343.59;5094177;28;818;-55
2022/02/17 09:10:07;;;;;;;;;;;;;;;9.63;79.98;99348.91;5094171;28;791;-55
2022/02/17 09:12:34;;;;;;;;;;;;;;;9.55;79.92;99353.69;5094015;28;802;-55
2022/02/17 09:15:01;;;;;;;;;;;;;;;9.60;80.06;99353.28;5093924;28;1057;-55
2022/02/17 09:20:32;;;;;;;;;;;;;;;9.61;78.83;99348.53;5094273;28;649;-54
2022/02/17 09:22:59;;;;;;;;;;;;;;;9.68;79.79;99329.16;5094071;28;957;-53
2022/02/17 09:25:25;;;;;;;;;;;;;;;9.77;78.21;99325.91;5093740;28;930;-51
2022/02/17 09:27:51;;;;;;;;;;;;;;;9.81;78.34;99324.72;5093839;28;882;-52
2022/02/17 09:30:22;;;;;;;;;;;;;;;9.76;77.78;99321.59;5093903;28;914;-53
2022/02/17 09:32:48;;;;;;;;;;;;;;;9.72;77.51;99321.63;5093881;28;891;-51
2022/02/17 09:35:15;;;;;;;;;;;;;;;9.66;77.89;99312.22;5093721;28;827;-54
2022/02/17 09:37:42;;;;;;;;;;;;;;;9.98;79.17;99308.34;5093488;28;1949;-56
2022/02/17 09:40:09;;;;;;;;;;;;;;;10.25;76.88;99308.47;5093418;28;925;-56
2022/02/17 09:42:39;;;;;;;;;;;;;;;10.40;76.36;99306.34;5093302;28;1394;-57
2022/02/17 09:45:08;;;;;;;;;;;;;;;10.60;75.28;99300.97;5093354;28;862;-58
2022/02/17 09:47:37;;;;;;;;;;;;;;;10.74;74.37;99291.72;5091763;28;1335;-58
2022/02/17 09:50:08;;;;;;;;;;;;;;;10.80;75.41;99279.75;5092969;28;902;-59
2022/02/17 09:52:35;;;;;;;;;;;;;;;11.15;74.03;99276.88;5108905;28;889;-59
2022/02/17 09:55:02;;;;;;;;;;;;;;;11.47;73.57;99270.81;5092880;28;827;-60
2022/02/17 09:57:32;;;;;;;;;;;;;;;11.47;72.16;99268.06;5092987;28;832;-60
2022/02/17 10:00:00;;;;;;;;;;;;;;;11.58;71.67;99260.34;5093422;28;1910;-59
2022/02/17 10:02:27;;;;;;;;;;;;;;;11.66;71.77;99261.00;5093145;28;879;-59
2022/02/17 10:04:55;;;;;;;;;;;;;;;11.81;71.27;99264.28;5093209;28;834;-59
2022/02/17 10:07:39;;;;;;;;;;;;;;;11.98;69.68;99246.59;5093163;28;977;-59
2022/02/17 10:10:08;;;;;;;;;;;;;;;12.11;69.44;99245.97;5074506;28;1505;-59
2022/02/17 10:12:51;;;;;;;;;;;;;;;12.24;68.73;99228.25;5092925;28;831;-59
2022/02/17 10:15:25;;;;;;;;;;;;;;;12.17;68.19;99236.72;5092789;28;956;-59
2022/02/17 10:18:02;;;;;;;;;;;;;;;12.34;68.37;99222.94;5092993;28;1886;-59
2022/02/17 10:20:49;;;;;;;;;;;;;;;12.40;67.93;99216.44;5092653;28;914;-59
2022/02/17 10:23:16;;;;;;;;;;;;;;;12.46;67.86;99214.72;5092693;28;1540;-59
2022/02/17 10:26:02;;;;;;;;;;;;;;;12.86;67.44;99208.28;5092750;28;905;-59
2022/02/17 10:28:33;;;;;;;;;;;;;;;13.08;65.95;99200.25;5108297;28;1195;-59
2022/02/17 10:31:00;;;;;;;;;;;;;;;12.63;66.51;99196.13;5074361;28;1286;-59
2022/02/17 10:33:41;;;;;;;;;;;;;;;12.41;67.54;99189.50;5091141;28;1215;-59
2022/02/17 10:36:08;;;;;;;;;;;;;;;12.57;68.16;99181.22;5092597;28;815;-59
2022/02/17 10:38:35;;;;;;;;;;;;;;;12.86;67.49;99173.00;5090839;28;1882;-59
2022/02/17 10:41:02;;;;;;;;;;;;;;;13.00;67.10;99155.25;5098175;28;1312;-59
2022/02/17 10:43:29;;;;;;;;;;;;;;;13.17;66.12;99156.00;5112643;28;965;-59
2022/02/17 10:46:04;;;;;;;;;;;;;;;13.66;65.74;99150.34;5094798;28;908;-58
2022/02/17 10:48:31;;;;;;;;;;;;;;;13.75;63.24;99155.28;5128504;27;1277;-59
2022/02/17 10:51:11;;;;;;;;;;;;;;;13.57;65.07;99130.78;5094428;28;1417;-59
2022/02/17 10:53:43;;;;;;;;;;;;;;;13.80;64.16;99134.50;5112482;28;872;-59
2022/02/17 10:56:15;;;;;;;;;;;;;;;14.12;62.07;99124.44;5112447;28;912;-60
2022/02/17 10:58:50;;;;;;;;;;;;;;;14.08;62.14;99125.34;5112324;28;1918;-60
2022/02/17 11:01:21;;;;;;;;;;;;;;;14.07;62.66;99114.66;5112588;28;897;-59
2022/02/17 11:03:53;;;;;;;;;;;;;;;14.12;62.18;99099.44;5112364;28;885;-59
2022/02/17 11:06:21;;;;;;;;;;;;;;;14.04;62.16;99091.34;5093341;28;2041;-59
2022/02/17 11:08:48;;;;;;;;;;;;;;;14.12;61.50;99089.09;5112382;28;790;-59
2022/02/17 11:11:16;;;;;;;;;;;;;;;14.17;61.45;99082.22;5112257;28;964;-60
2022/02/17 11:13:50;;;;;;;;;;;;;;;14.27;60.98;99070.78;5094034;28;1302;-59
2022/02/17 11:16:21;;;;;;;;;;;;;;;14.18;60.94;99072.66;5093881;28;1591;-60
2022/02/17 11:18:50;;;;;;;;;;;;;;;14.44;60.34;99065.06;5112163;28;1995;-60
2022/02/17 11:21:17;;;;;;;;;;;;;;;14.64;60.42;99042.63;5093895;28;1346;-59
2022/02/17 11:23:44;;;;;;;;;;;;;;;14.96;60.31;99038.72;5112138;28;853;-60
2022/02/17 11:26:26;;;;;;;;;;;;;;;15.01;58.66;99040.94;5112133;28;1009;-59
2022/02/17 11:28:53;;;;;;;;;;;;;;;14.80;59.56;99030.53;5077222;28;1447;-59
2022/02/17 11:31:21;;;;;;;;;;;;;;;14.89;58.94;99025.84;5111946;28;908;-59
2022/02/17 11:33:55;;;;;;;;;;;;;;;14.97;58.38;99018.00;5112059;28;897;-59
2022/02/17 11:36:30;;;;;;;;;;;;;;;14.93;58.47;99027.72;5111844;28;921;-59
2022/02/17 11:38:58;;;;;;;;;;;;;;;15.03;58.44;99012.66;5111808;28;1885;-60
2022/02/17 11:41:28;;;;;;;;;;;;;;;15.08;58.78;99012.88;5111568;28;1228;-59
2022/02/17 11:44:07;;;;;;;;;;;;;;;15.15;57.80;98997.91;5111864;28;1256;-59
2022/02/17 11:46:44;;;;;;;;;;;;;;;15.12;57.77;99009.94;5111797;28;810;-59
2022/02/17 11:49:29;;;;;;;;;;;;;;;15.35;58.63;99002.38;5127815;28;1305;-59
2022/02/17 11:52:10;;;;;;;;;;;;;;;15.62;56.16;98998.94;5111797;28;882;-60
2022/02/17 11:54:36;;;;;;;;;;;;;;;15.46;56.15;99002.72;5111779;28;881;-59
2022/02/17 11:57:03;;;;;;;;;;;;;;;15.47;55.86;98993.16;5093853;28;831;-59
2022/02/17 11:59:31;;;;;;;;;;;;;;;15.47;56.45;98995.94;5111670;28;1913;-60
2022/02/17 12:01:59;;;;;;;;;;;;;;;15.46;56.80;98992.34;5093408;28;1177;-60
2022/02/17 12:04:30;;;;;;;;;;;;;;;15.41;56.05;98978.28;5093475;28;1352;-59
2022/02/17 12:06:58;;;;;;;;;;;;;;;15.25;57.20;98993.16;5111515;28;953;-59
2022/02/17 12:09:32;;;;;;;;;;;;;;;15.30;57.96;98989.81;5111566;28;910;-59
2022/02/17 12:12:19;;;;;;;;;;;;;;;15.38;57.14;98981.94;5127584;28;1352;-59
2022/02/17 12:14:46;;;;;;;;;;;;;;;15.52;56.78;98979.41;5111684;28;877;-59
2022/02/17 12:17:13;;;;;;;;;;;;;;;15.50;55.86;98967.16;5096196;28;1000;-59
2022/02/17 12:19:40;;;;;;;;;;;;;;;15.64;56.38;98966.63;5115802;28;1897;-59
2022/02/17 12:22:08;;;;;;;;;;;;;;;15.71;56.21;98957.22;5115765;28;889;-59
2022/02/17 12:24:38;;;;;;;;;;;;;;;15.47;56.93;98962.53;5115728;28;806;-59
2022/02/17 12:27:06;;;;;;;;;;;;;;;15.44;56.52;98963.44;5097120;28;1174;-59
2022/02/17 12:29:33;;;;;;;;;;;;;;;15.45;56.49;98945.50;5115429;28;865;-59
2022/02/17 12:32:01;;;;;;;;;;;;;;;15.34;56.34;98945.91;5115236;28;966;-58
2022/02/17 12:34:28;;;;;;;;;;;;;;;15.31;56.99;98942.00;5115335;28;809;-59
2022/02/17 12:36:55;;;;;;;;;;;;;;;15.21;57.59;98940.44;5115168;28;818;-59
2022/02/17 12:39:25;;;;;;;;;;;;;;;15.23;56.94;98949.06;5115100;28;1885;-59
2022/02/17 12:41:59;;;;;;;;;;;;;;;15.34;57.20;98950.69;5114935;28;1351;-59
2022/02/17 12:44:30;;;;;;;;;;;;;;;15.44;56.72;98943.94;5115073;28;818;-59
2022/02/17 12:46:58;;;;;;;;;;;;;;;15.39;56.41;98947.31;5115193;28;838;-59
2022/02/17 12:49:25;;;;;;;;;;;;;;;15.32;57.28;98932.44;5115127;28;1262;-59
2022/02/17 12:51:52;;;;;;;;;;;;;;;15.50;56.89;98942.88;5097099;28;1396;-59
2022/02/17 12:54:22;;;;;;;;;;;;;;;15.76;56.04;98936.38;5115161;28;818;-59
2022/02/17 12:56:50;;;;;;;;;;;;;;;15.97;55.52;98935.50;5114845;28;921;-60
2022/02/17 12:59:17;;;;;;;;;;;;;;;15.84;55.27;98932.06;5096439;28;1910;-59
2022/02/17 13:01:47;;;;;;;;;;;;;;;15.60;55.62;98934.59;5114726;28;920;-59
2022/02/17 13:04:16;;;;;;;;;;;;;;;15.59;55.73;98916.31;5114550;28;961;-59
2022/02/17 13:06:43;;;;;;;;;;;;;;;15.74;55.36;98911.75;5114580;28;934;-59
2022/02/17 13:09:14;;;;;;;;;;;;;;;15.95;54.94;98917.69;5114621;28;810;-59
2022/02/17 13:11:54;;;;;;;;;;;;;;;15.80;54.87;98914.72;5114599;28;803;-60
2022/02/17 13:14:26;;;;;;;;;;;;;;;15.70;55.01;98911.06;5114326;28;896;-59
2022/02/17 13:16:55;;;;;;;;;;;;;;;15.65;55.21;98901.31;5096091;28;1254;-59
2022/02/17 13:19:37;;;;;;;;;;;;;;;15.61;54.83;98895.09;5096100;28;1898;-58
2022/02/17 13:22:04;;;;;;;;;;;;;;;15.64;55.21;98899.78;5096608;28;902;-59
2022/02/17 13:24:31;;;;;;;;;;;;;;;15.83;54.83;98891.50;5114361;28;826;-59